Time;durP1;ratioP1;P1;durP2;ratioP2;P2;SDS_P1;SDS_P2;PMS_P1;PMS_P2;Temp;Humidity;BMP_temperature;BMP_pressure;BME280_temperature;BME280_humidity;BME280_pressure;Samples;Min_cycle;Max_cycle;Signal;HPM_P1;HPM_P2
2023/09/20 00:01:24;;;;;;;1.83;1.60;;;;;;;18.12;nan;61408.34;5113562;28;20631;-76
2023/09/20 00:03:49;;;;;;;1.38;1.20;;;;;;;18.10;nan;61396.31;5113699;28;20153;-76
2023/09/20 00:06:18;;;;;;;1.83;1.52;;;;;;;18.06;nan;61616.16;5113811;28;20161;-76
2023/09/20 00:08:44;;;;;;;1.88;1.55;;;;;;;17.82;nan;61428.69;5114387;28;20173;-76
2023/09/20 00:11:15;;;;;;;1.63;1.27;;;;;;;18.26;nan;61506.94;5114354;28;20292;-75
2023/09/20 00:13:43;;;;;;;4.32;1.65;;;;;;;18.13;nan;61476.69;5114412;28;20201;-75
2023/09/20 00:16:09;;;;;;;1.80;1.45;;;;;;;18.20;nan;61461.34;5113837;28;20165;-75
2023/09/20 00:18:35;;;;;;;2.08;1.50;;;;;;;18.21;nan;61359.06;5113446;28;20188;-76
2023/09/20 00:21:01;;;;;;;1.83;1.60;;;;;;;18.17;nan;61390.75;5112811;28;20620;-76
2023/09/20 00:23:27;;;;;;;2.22;1.65;;;;;;;18.20;nan;61372.88;5113088;28;20160;-76
2023/09/20 00:25:52;;;;;;;2.15;1.80;;;;;;;18.27;nan;61402.03;5112874;28;20650;-76
2023/09/20 00:28:18;;;;;;;1.73;1.40;;;;;;;18.16;nan;61529.22;5112788;28;20248;-76
2023/09/20 00:30:45;;;;;;;2.05;1.30;;;;;;;18.42;nan;61555.53;5094699;28;20716;-76
2023/09/20 00:33:11;;;;;;;1.48;1.35;;;;;;;18.51;nan;61583.84;5112909;28;20190;-76
2023/09/20 00:35:39;;;;;;;1.10;1.05;;;;;;;18.45;nan;61572.41;5112866;28;20553;-76
2023/09/20 00:38:04;;;;;;;1.30;1.20;;;;;;;18.64;nan;61596.00;5113074;28;20572;-76
2023/09/20 00:40:32;;;;;;;1.58;1.20;;;;;;;18.87;nan;61616.31;5112530;28;20179;-75
2023/09/20 00:42:58;;;;;;;2.05;1.08;;;;;;;18.84;nan;61511.97;5092601;28;20196;-76
2023/09/20 00:45:23;;;;;;;1.48;1.17;;;;;;;18.78;nan;61525.88;5095910;28;20187;-76
2023/09/20 00:47:57;;;;;;;2.90;1.60;;;;;;;18.67;nan;61397.56;5106579;28;20185;-77
2023/09/20 00:50:27;;;;;;;2.13;1.30;;;;;;;18.85;nan;61500.16;5092150;28;20182;-77
2023/09/20 00:52:54;;;;;;;2.70;1.67;;;;;;;18.70;nan;61600.22;5104881;28;20181;-76
2023/09/20 00:55:24;;;;;;;1.63;1.40;;;;;;;18.86;nan;61620.38;5114028;28;20188;-76
2023/09/20 00:58:04;;;;;;;1.40;1.20;;;;;;;18.89;nan;61610.84;5113300;28;20275;-76
2023/09/20 01:00:32;;;;;;;1.45;1.20;;;;;;;18.81;nan;61597.16;5094284;28;20175;-77
2023/09/20 01:03:00;;;;;;;1.50;1.17;;;;;;;18.70;nan;61446.97;5112575;28;20557;-76
2023/09/20 01:05:26;;;;;;;2.30;1.88;;;;;;;18.75;nan;61610.50;5112398;28;20237;-76
2023/09/20 01:07:57;;;;;;;1.77;1.42;;;;;;;18.57;nan;61577.16;5112373;28;20256;-77
2023/09/20 01:10:26;;;;;;;1.52;1.42;;;;;;;18.72;nan;61462.16;5112252;28;20220;-76
2023/09/20 01:12:57;;;;;;;1.58;1.27;;;;;;;18.54;nan;61448.09;5112351;28;20168;-76
2023/09/20 01:15:24;;;;;;;1.60;1.33;;;;;;;18.48;nan;61581.00;5111910;28;20187;-76
2023/09/20 01:17:55;;;;;;;1.38;1.27;;;;;;;18.47;nan;61597.97;5112242;28;20291;-76
2023/09/20 01:20:21;;;;;;;1.83;1.60;;;;;;;18.32;nan;61387.00;5112318;28;20165;-76
2023/09/20 01:22:48;;;;;;;1.70;1.55;;;;;;;18.27;nan;61523.56;5112304;28;20639;-76
2023/09/20 01:25:22;;;;;;;2.10;1.83;;;;;;;18.29;nan;61681.03;5112241;28;20226;-76
2023/09/20 01:27:50;;;;;;;2.08;1.50;;;;;;;18.08;nan;61414.72;5111937;28;20254;-76
2023/09/20 01:30:18;;;;;;;1.67;1.58;;;;;;;18.08;nan;61509.81;5112054;28;20169;-75
2023/09/20 01:32:44;;;;;;;1.83;1.63;;;;;;;18.29;nan;61492.22;5111697;28;20183;-76
2023/09/20 01:35:10;;;;;;;2.20;1.50;;;;;;;18.36;nan;61419.38;5111903;28;20176;-76
2023/09/20 01:37:37;;;;;;;1.40;1.30;;;;;;;18.29;nan;61554.31;5112168;28;20207;-76
2023/09/20 01:40:08;;;;;;;1.30;1.20;;;;;;;18.15;nan;61553.38;5111654;28;20560;-76
2023/09/20 01:42:33;;;;;;;1.00;1.00;;;;;;;18.09;nan;61397.75;5093663;28;20183;-76
2023/09/20 01:45:00;;;;;;;1.52;1.30;;;;;;;17.89;nan;61384.94;5093521;28;20276;-76
2023/09/20 01:47:26;;;;;;;2.55;1.70;;;;;;;17.52;nan;61519.31;5076333;28;20672;-76
2023/09/20 01:49:52;;;;;;;1.63;1.48;;;;;;;18.01;nan;61481.78;5112227;28;20175;-76
2023/09/20 01:52:18;;;;;;;1.42;1.33;;;;;;;18.13;nan;61437.91;5104162;28;20173;-76
2023/09/20 01:54:44;;;;;;;2.70;1.67;;;;;;;18.10;nan;61489.38;5091348;28;20239;-76
2023/09/20 01:57:10;;;;;;;2.15;1.95;;;;;;;18.29;nan;61458.59;5090971;28;20598;-76
2023/09/20 01:59:36;;;;;;;2.72;2.22;;;;;;;18.21;nan;61392.09;5091729;28;20181;-77
2023/09/20 02:02:03;;;;;;;2.15;1.80;;;;;;;18.24;nan;61501.50;5091601;28;20174;-77
2023/09/20 02:04:28;;;;;;;3.05;2.03;;;;;;;18.22;nan;61572.22;5091592;28;20227;-77
2023/09/20 02:06:54;;;;;;;4.28;2.50;;;;;;;18.14;nan;61567.75;5090205;28;20565;-76
2023/09/20 02:09:19;;;;;;;3.53;1.98;;;;;;;17.98;nan;61514.59;5091273;28;20174;-76
2023/09/20 02:11:45;;;;;;;2.33;1.58;;;;;;;17.93;nan;61508.34;5091370;28;20221;-76
2023/09/20 02:14:11;;;;;;;2.67;1.63;;;;;;;18.13;nan;61421.84;5091317;28;20169;-76
2023/09/20 02:16:37;;;;;;;1.80;1.40;;;;;;;18.19;nan;61455.03;5091448;28;20632;-77
2023/09/20 02:19:03;;;;;;;1.73;1.52;;;;;;;17.87;nan;61509.31;5091254;28;20189;-77
2023/09/20 02:21:31;;;;;;;1.63;1.50;;;;;;;17.87;nan;61533.13;5091299;28;20173;-76
2023/09/20 02:23:58;;;;;;;2.63;1.25;;;;;;;17.91;nan;61361.34;5090804;28;20193;-76
2023/09/20 02:26:23;;;;;;;2.30;1.85;;;;;;;17.54;nan;61299.97;5091258;28;20640;-76
2023/09/20 02:28:48;;;;;;;2.30;1.50;;;;;;;17.37;nan;61437.75;5090909;28;20212;-75
2023/09/20 02:31:18;;;;;;;1.50;1.40;;;;;;;17.36;nan;61437.19;5091151;28;20243;-76
2023/09/20 02:33:43;;;;;;;1.65;1.40;;;;;;;17.45;nan;61320.81;5091101;28;20651;-76
2023/09/20 02:36:11;;;;;;;1.60;1.40;;;;;;;17.42;nan;61353.00;5090974;28;20165;-76
2023/09/20 02:38:37;;;;;;;1.52;1.40;;;;;;;17.15;nan;61403.66;5090903;28;20196;-76
2023/09/20 02:41:03;;;;;;;2.15;1.80;;;;;;;17.37;nan;61430.56;5091134;28;20170;-76
2023/09/20 02:43:29;;;;;;;3.80;2.03;;;;;;;17.39;nan;61360.50;5091909;28;20238;-77
2023/09/20 02:45:59;;;;;;;1.92;1.38;;;;;;;15.89;nan;61265.47;5102035;28;20176;-76
2023/09/20 02:48:26;;;;;;;2.00;1.40;;;;;;;17.41;nan;61486.75;5104223;28;20169;-76
2023/09/20 02:50:52;;;;;;;2.20;1.50;;;;;;;17.40;nan;61379.16;5097578;28;20547;-75
2023/09/20 02:53:18;;;;;;;2.20;1.58;;;;;;;17.30;nan;61383.91;5112712;28;20635;-76
2023/09/20 02:55:44;;;;;;;2.58;1.50;;;;;;;17.25;nan;61333.81;5115726;28;20183;-76
2023/09/20 02:58:10;;;;;;;1.38;1.27;;;;;;;17.26;nan;61332.91;5114840;28;20193;-77
2023/09/20 03:00:38;;;;;;;1.73;1.20;;;;;;;17.35;nan;61435.47;5115176;28;20564;-77
2023/09/20 03:03:04;;;;;;;2.15;1.27;;;;;;;17.32;nan;61226.09;5114574;28;20169;-76
2023/09/20 03:05:35;;;;;;;2.42;1.77;;;;;;;17.07;nan;61172.63;5114637;28;20196;-76
2023/09/20 03:08:04;;;;;;;2.28;1.52;;;;;;;17.21;nan;61190.44;5114722;28;20252;-76
2023/09/20 03:10:31;;;;;;;1.58;1.48;;;;;;;17.12;nan;61252.56;5114782;28;20272;-76
2023/09/20 03:13:03;;;;;;;2.05;1.38;;;;;;;17.14;nan;61288.94;5114515;28;20165;-77
2023/09/20 03:15:28;;;;;;;3.88;1.90;;;;;;;16.92;nan;61129.38;5114581;28;20180;-76
2023/09/20 03:18:02;;;;;;;2.17;1.42;;;;;;;16.90;nan;61165.81;5096023;28;20220;-77
2023/09/20 03:20:32;;;;;;;2.05;1.58;;;;;;;16.67;nan;61055.34;5114417;28;20176;-75
2023/09/20 03:23:05;;;;;;;2.08;1.52;;;;;;;16.87;nan;61090.19;5082965;28;20208;-76
2023/09/20 03:25:36;;;;;;;2.03;1.77;;;;;;;16.81;nan;61063.34;5107074;28;20181;-76
2023/09/20 03:28:07;;;;;;;2.55;2.20;;;;;;;16.81;nan;61026.66;5097704;28;20230;-76
2023/09/20 03:30:33;;;;;;;2.10;1.83;;;;;;;16.88;nan;61163.56;5095631;28;20172;-76
2023/09/20 03:32:59;;;;;;;3.15;1.48;;;;;;;16.70;nan;60952.94;5114237;28;20168;-75
2023/09/20 03:35:24;;;;;;;1.45;1.35;;;;;;;16.64;nan;60918.41;5113820;28;20176;-76
2023/09/20 03:37:51;;;;;;;1.42;1.33;;;;;;;16.65;nan;61056.22;5113714;28;20224;-76
2023/09/20 03:40:19;;;;;;;1.90;1.65;;;;;;;16.46;nan;60900.72;5113878;28;20225;-76
2023/09/20 03:42:45;;;;;;;1.63;1.48;;;;;;;16.61;nan;61103.28;5113984;28;20608;-76
2023/09/20 03:45:14;;;;;;;2.58;1.85;;;;;;;16.49;nan;61020.16;5094669;28;20185;-76
2023/09/20 03:47:40;;;;;;;2.50;1.45;;;;;;;16.55;nan;60863.88;5109738;28;20215;-76
2023/09/20 03:50:09;;;;;;;1.60;1.45;;;;;;;16.52;nan;60814.66;5093345;28;20173;-76
2023/09/20 03:52:39;;;;;;;1.70;1.50;;;;;;;16.37;nan;60892.66;5103931;28;20179;-76
2023/09/20 03:55:05;;;;;;;2.33;1.70;;;;;;;16.61;nan;60840.25;5114798;28;20161;-76
2023/09/20 03:57:31;;;;;;;2.50;1.60;;;;;;;16.59;nan;60845.19;5113673;28;20195;-75
2023/09/20 03:59:59;;;;;;;4.85;1.70;;;;;;;16.20;nan;60879.84;5112978;28;20173;-76
2023/09/20 04:02:26;;;;;;;2.00;1.80;;;;;;;16.39;nan;60733.03;5113428;28;20191;-76
2023/09/20 04:04:53;;;;;;;1.70;1.60;;;;;;;16.49;nan;60839.09;5104906;28;20569;-75
2023/09/20 04:07:19;;;;;;;3.97;2.70;;;;;;;16.62;nan;60913.00;5091761;28;20185;-75
2023/09/20 04:09:45;;;;;;;3.42;1.95;;;;;;;16.72;nan;60963.50;5109213;28;20188;-76
2023/09/20 04:12:12;;;;;;;2.15;1.83;;;;;;;16.58;nan;60996.19;5094516;28;20221;-76
2023/09/20 04:14:37;;;;;;;3.05;2.10;;;;;;;16.77;nan;61025.31;5095704;28;20184;-76
2023/09/20 04:17:04;;;;;;;3.13;2.33;;;;;;;16.66;nan;61077.97;5094339;28;20283;-76
2023/09/20 04:19:30;;;;;;;2.38;1.95;;;;;;;16.59;nan;61038.59;5113052;28;20226;-76
2023/09/20 04:21:56;;;;;;;5.18;1.90;;;;;;;16.64;nan;61072.59;5112834;28;20168;-76
2023/09/20 04:24:22;;;;;;;1.73;1.63;;;;;;;16.69;nan;60983.34;5112424;28;20165;-76
2023/09/20 04:26:48;;;;;;;2.45;1.75;;;;;;;16.65;nan;61001.50;5094132;28;20185;-76
2023/09/20 04:29:13;;;;;;;2.30;2.10;;;;;;;16.53;nan;61112.31;5112848;28;20177;-76
2023/09/20 04:31:40;;;;;;;3.45;2.05;;;;;;;16.58;nan;60942.03;5094145;28;20604;-76
2023/09/20 04:34:05;;;;;;;5.07;2.70;;;;;;;16.46;nan;60967.75;5072867;28;20241;-75
2023/09/20 04:36:31;;;;;;;2.33;1.88;;;;;;;16.52;nan;61157.59;5092238;28;20165;-77
2023/09/20 04:38:56;;;;;;;3.78;2.53;;;;;;;16.53;nan;61053.00;5090844;28;20205;-78
2023/09/20 04:41:21;;;;;;;2.63;2.22;;;;;;;16.55;nan;61173.31;5089978;28;20703;-78
2023/09/20 04:43:47;;;;;;;4.75;2.92;;;;;;;16.48;nan;61168.56;5090557;28;20193;-76
2023/09/20 04:46:13;;;;;;;2.67;2.47;;;;;;;16.62;nan;61070.91;5095263;28;20639;-75
2023/09/20 04:48:41;;;;;;;6.63;2.90;;;;;;;16.55;nan;60967.59;5106480;28;20191;-76
2023/09/20 04:51:10;;;;;;;5.15;2.20;;;;;;;16.67;nan;61021.81;5091694;28;20303;-75
2023/09/20 04:53:35;;;;;;;1.52;1.42;;;;;;;16.75;nan;61020.47;5103022;28;20272;-75
2023/09/20 04:56:02;;;;;;;1.88;1.73;;;;;;;16.76;nan;61122.78;5112305;28;20667;-75
2023/09/20 04:58:27;;;;;;;2.80;1.90;;;;;;;17.13;nan;61042.03;5112296;28;20208;-75
2023/09/20 05:00:53;;;;;;;4.22;2.03;;;;;;;17.27;nan;61093.94;5111929;28;20161;-76
2023/09/20 05:03:19;;;;;;;4.40;2.15;;;;;;;17.50;nan;61181.81;5112067;28;20176;-77
2023/09/20 05:05:47;;;;;;;1.98;1.75;;;;;;;17.47;nan;61276.03;5111588;28;20180;-77
2023/09/20 05:08:15;;;;;;;3.45;2.08;;;;;;;17.76;nan;61509.75;5112194;28;20173;-76
2023/09/20 05:10:41;;;;;;;2.40;1.63;;;;;;;17.92;nan;61394.06;5111877;28;20679;-76
2023/09/20 05:13:07;;;;;;;3.30;1.50;;;;;;;17.98;nan;61462.31;5112197;28;20169;-77
2023/09/20 05:15:32;;;;;;;2.38;1.75;;;;;;;18.08;nan;61481.38;5111719;28;20173;-77
2023/09/20 05:17:58;;;;;;;1.95;1.77;;;;;;;18.05;nan;61512.16;5111648;28;20223;-76
2023/09/20 05:20:24;;;;;;;3.67;1.92;;;;;;;18.21;nan;61431.47;5111857;28;20256;-76
2023/09/20 05:22:49;;;;;;;2.42;2.00;;;;;;;18.27;nan;61513.22;5097369;28;20169;-76
2023/09/20 05:25:15;;;;;;;2.13;1.58;;;;;;;18.32;nan;61516.31;5099864;28;20176;-77
2023/09/20 05:27:40;;;;;;;2.78;1.73;;;;;;;18.42;nan;61433.94;5100776;28;20199;-77
2023/09/20 05:30:06;;;;;;;1.85;1.65;;;;;;;18.75;nan;61576.84;5091577;28;20215;-76
2023/09/20 05:32:32;;;;;;;3.13;1.95;;;;;;;18.93;nan;61563.59;5107835;28;20180;-76
2023/09/20 05:34:57;;;;;;;2.85;1.73;;;;;;;18.90;nan;61596.44;5111896;28;20630;-76
2023/09/20 05:37:22;;;;;;;1.77;1.55;;;;;;;19.17;nan;61616.69;5111812;28;20328;-77
2023/09/20 05:39:49;;;;;;;2.13;1.63;;;;;;;19.08;nan;61743.75;5093036;28;20249;-77
2023/09/20 05:42:15;;;;;;;2.53;1.73;;;;;;;19.19;nan;61652.63;5112208;28;20176;-77
2023/09/20 05:44:40;;;;;;;2.08;1.63;;;;;;;19.35;nan;61787.38;5093559;28;20176;-77
2023/09/20 05:47:08;;;;;;;2.33;1.65;;;;;;;19.55;nan;61568.53;5111594;28;20176;-77
2023/09/20 05:49:34;;;;;;;3.88;2.45;;;;;;;19.64;nan;61705.16;5093263;28;20176;-77
2023/09/20 05:52:00;;;;;;;2.65;1.52;;;;;;;19.76;nan;61713.56;5093596;28;20279;-77
2023/09/20 05:54:26;;;;;;;3.10;2.00;;;;;;;19.89;nan;61774.44;5111669;28;20616;-77
2023/09/20 05:56:51;;;;;;;1.60;1.50;;;;;;;20.12;nan;61647.50;5111506;28;20160;-77
2023/09/20 05:59:17;;;;;;;1.90;1.42;;;;;;;20.19;nan;61639.88;5093410;28;20593;-77
2023/09/20 06:01:42;;;;;;;2.28;1.40;;;;;;;20.37;nan;61714.81;5111648;28;20177;-76
2023/09/20 06:04:11;;;;;;;3.20;1.75;;;;;;;20.45;nan;61824.53;5111334;28;20184;-77
2023/09/20 06:06:38;;;;;;;3.80;1.92;;;;;;;20.48;nan;61838.34;5105264;28;20181;-77
2023/09/20 06:09:04;;;;;;;3.15;1.77;;;;;;;20.67;nan;61948.19;5093038;28;20181;-77
2023/09/20 06:11:29;;;;;;;2.85;1.70;;;;;;;20.95;nan;61774.28;5102130;28;20225;-77
2023/09/20 06:13:55;;;;;;;1.65;1.25;;;;;;;21.13;nan;61883.66;5090986;28;20565;-77
2023/09/20 06:16:22;;;;;;;2.17;1.58;;;;;;;20.95;nan;61769.66;5093041;28;20199;-78
2023/09/20 06:18:50;;;;;;;2.17;1.40;;;;;;;21.27;nan;61893.81;5114997;28;20297;-79
2023/09/20 06:21:17;;;;;;;2.10;1.60;;;;;;;21.19;nan;61894.53;5097226;28;20262;-79
2023/09/20 06:23:46;;;;;;;1.58;1.40;;;;;;;21.12;nan;61752.59;5115582;28;20168;-78
2023/09/20 06:26:12;;;;;;;2.67;2.35;;;;;;;21.30;nan;61777.66;5096364;28;20184;-79
2023/09/20 06:28:41;;;;;;;4.18;2.05;;;;;;;21.30;nan;61829.66;5100536;28;20192;-79
2023/09/20 06:31:13;;;;;;;2.05;1.45;;;;;;;21.48;nan;61959.28;5111805;28;20176;-79
2023/09/20 06:33:40;;;;;;;1.73;1.52;;;;;;;21.64;nan;61958.16;5094937;28;20268;-79
2023/09/20 06:36:05;;;;;;;1.90;1.50;;;;;;;21.87;nan;62096.22;5099661;28;20176;-81
2023/09/20 06:38:34;;;;;;;2.85;1.60;;;;;;;21.97;nan;61930.66;5078734;28;20254;-80
2023/09/20 06:41:00;;;;;;;1.77;1.40;;;;;;;21.98;nan;61913.59;5076922;28;20555;-80
2023/09/20 06:43:27;;;;;;;2.65;2.03;;;;;;;22.08;nan;61930.19;5094521;28;20244;-81
2023/09/20 06:45:53;;;;;;;1.90;1.70;;;;;;;22.20;nan;62003.13;5094483;28;20173;-79
2023/09/20 06:48:20;;;;;;;3.50;2.25;;;;;;;22.36;nan;61938.00;5094573;28;20171;-78
2023/09/20 06:50:52;;;;;;;2.33;1.75;;;;;;;22.47;nan;62031.25;5079588;28;20200;-77
2023/09/20 06:53:18;;;;;;;3.25;1.90;;;;;;;22.52;nan;61945.78;5117299;28;20169;-77
2023/09/20 06:55:44;;;;;;;4.38;1.50;;;;;;;22.59;nan;62203.81;5095613;28;20522;-78
2023/09/20 06:58:10;;;;;;;1.67;1.40;;;;;;;22.92;nan;62115.81;5075579;28;20208;-78
2023/09/20 07:00:36;;;;;;;1.63;1.38;;;;;;;23.13;nan;62131.94;5093932;28;20174;-79
2023/09/20 07:03:02;;;;;;;2.20;1.70;;;;;;;23.17;nan;62104.63;5109946;28;20238;-78
2023/09/20 07:05:31;;;;;;;1.52;1.33;;;;;;;23.29;nan;62163.22;5093951;28;20173;-80
2023/09/20 07:08:00;;;;;;;2.13;1.50;;;;;;;23.33;nan;62183.41;5093465;28;20196;-76
2023/09/20 07:10:28;;;;;;;2.08;1.58;;;;;;;23.42;nan;62166.47;5093813;28;20248;-77
2023/09/20 07:12:54;;;;;;;2.25;1.50;;;;;;;23.49;nan;62221.44;5094237;28;20169;-77
2023/09/20 07:15:21;;;;;;;2.70;1.75;;;;;;;23.57;nan;62214.91;5093803;28;20173;-78
2023/09/20 07:17:50;;;;;;;2.00;1.73;;;;;;;23.44;nan;62189.63;5096522;28;20196;-78
2023/09/20 07:20:17;;;;;;;2.08;1.58;;;;;;;23.66;nan;62157.31;5097865;28;20201;-76
2023/09/20 07:22:47;;;;;;;1.70;1.30;;;;;;;23.80;nan;62219.69;5081995;28;20238;-76
2023/09/20 07:25:19;;;;;;;1.50;1.30;;;;;;;23.91;nan;62136.22;5088463;28;20226;-76
2023/09/20 07:27:45;;;;;;;1.13;1.02;;;;;;;23.71;nan;62179.25;5092568;28;20173;-77
2023/09/20 07:30:21;;;;;;;1.95;1.40;;;;;;;21.26;nan;63722.31;5092291;28;20216;-75
2023/09/20 07:32:48;;;;;;;1.20;1.10;;;;;;;23.96;nan;62157.56;5091269;28;20173;-76
2023/09/20 07:35:37;;;;;;;2.33;1.55;;;;;;;24.12;nan;62250.97;5089432;28;20268;-79
2023/09/20 07:38:04;;;;;;;1.33;1.20;;;;;;;24.07;nan;62122.53;5084100;28;20207;-79
2023/09/20 07:40:35;;;;;;;1.77;1.35;;;;;;;24.08;nan;62252.19;5076936;28;20758;-81
2023/09/20 07:43:06;;;;;;;1.88;1.35;;;;;;;23.98;nan;62138.41;5079938;28;20904;-80
2023/09/20 07:45:33;;;;;;;1.52;1.13;;;;;;;23.80;nan;62170.09;5079585;28;20575;-80
2023/09/20 07:48:00;;;;;;;1.55;1.42;;;;;;;23.94;nan;62159.94;5077577;28;20541;-79
2023/09/20 07:50:26;;;;;;;2.25;1.40;;;;;;;23.95;nan;62219.09;5100122;28;20604;-78
2023/09/20 07:52:51;;;;;;;2.22;1.83;;;;;;;24.38;nan;62233.06;5112714;27;20193;-79
2023/09/20 07:55:17;;;;;;;2.83;1.60;;;;;;;24.40;nan;62162.78;5078580;28;20276;-78
2023/09/20 07:57:43;;;;;;;2.30;1.65;;;;;;;24.50;nan;62346.63;5118066;27;20215;-78
2023/09/20 08:00:15;;;;;;;2.35;1.50;;;;;;;24.61;nan;62356.00;5091795;28;20671;-76
2023/09/20 08:02:40;;;;;;;3.60;1.90;;;;;;;24.86;nan;62306.16;5112339;27;20692;-76
2023/09/20 08:05:06;;;;;;;1.55;1.20;;;;;;;24.96;nan;62411.13;5113114;27;20271;-76
2023/09/20 08:07:36;;;;;;;1.80;1.55;;;;;;;24.85;nan;62291.91;5091758;28;20693;-76
2023/09/20 08:10:03;;;;;;;1.33;1.02;;;;;;;24.72;nan;62292.19;5089986;28;20185;-75
2023/09/20 08:12:28;;;;;;;1.80;1.58;;;;;;;24.82;nan;62332.38;5090938;28;20223;-76
2023/09/20 08:14:53;;;;;;;2.22;1.67;;;;;;;24.94;nan;62330.97;5091864;28;20181;-76
2023/09/20 08:20:07;;;;;;;2.30;1.63;;;;;;;24.74;nan;62281.41;5089991;28;20702;-75
2023/09/20 09:00:54;;;;;;;2.03;1.45;;;;;;;26.18;nan;62575.75;5089928;28;20628;-77
2023/09/20 09:03:21;;;;;;;1.33;1.15;;;;;;;26.33;nan;62459.28;5089399;28;20271;-76
2023/09/20 09:05:47;;;;;;;3.05;1.70;;;;;;;26.41;nan;62570.06;5076806;28;20183;-76
2023/09/20 09:08:13;;;;;;;1.85;1.33;;;;;;;26.47;nan;62571.13;5099196;28;20169;-75
2023/09/20 09:10:38;;;;;;;2.28;1.50;;;;;;;26.69;nan;62614.66;5100831;28;20319;-77
2023/09/20 09:13:04;;;;;;;1.90;1.35;;;;;;;26.83;nan;62641.19;5091426;28;20206;-78
2023/09/20 09:15:30;;;;;;;2.47;1.83;;;;;;;26.75;nan;62643.09;5106521;28;20188;-78
2023/09/20 09:17:55;;;;;;;1.40;1.30;;;;;;;26.54;nan;62498.47;5111440;28;20185;-75
2023/09/20 09:20:21;;;;;;;1.17;1.05;;;;;;;26.62;nan;62601.41;5111017;28;20169;-77
2023/09/20 09:22:48;;;;;;;1.33;1.23;;;;;;;26.71;nan;62763.84;5111583;28;20161;-77
2023/09/20 09:25:18;;;;;;;2.08;1.60;;;;;;;26.59;nan;62679.28;5111039;28;20190;-76
2023/09/20 09:27:44;;;;;;;2.45;1.50;;;;;;;26.70;nan;62471.59;5111192;28;20169;-76
2023/09/20 09:30:13;;;;;;;2.00;1.55;;;;;;;27.02;nan;62636.75;5111171;28;20188;-77
2023/09/20 09:32:39;;;;;;;1.85;1.20;;;;;;;27.04;nan;62570.84;5111180;28;20635;-77
2023/09/20 09:35:06;;;;;;;1.40;1.30;;;;;;;26.87;nan;62616.41;5110978;28;20510;-76
2023/09/20 09:37:33;;;;;;;1.60;1.27;;;;;;;26.99;nan;62675.31;5111174;28;20188;-79
2023/09/20 09:40:00;;;;;;;1.75;1.38;;;;;;;27.12;nan;62677.09;5106253;28;20667;-78
2023/09/20 09:42:28;;;;;;;1.50;1.30;;;;;;;27.41;nan;62580.53;5095772;28;20199;-79
2023/09/20 09:44:55;;;;;;;1.40;1.27;;;;;;;27.62;nan;62807.38;5092474;28;20185;-78
2023/09/20 09:47:21;;;;;;;1.90;1.15;;;;;;;27.74;nan;62754.94;5094419;28;20221;-76
2023/09/20 09:49:50;;;;;;;1.58;1.42;;;;;;;27.70;nan;62687.28;5111251;28;20581;-76
2023/09/20 09:52:17;;;;;;;1.38;1.15;;;;;;;27.83;nan;62817.22;5111805;28;20166;-76
2023/09/20 09:54:46;;;;;;;2.20;1.42;;;;;;;28.04;nan;62681.56;5114816;28;20176;-75
2023/09/20 09:57:13;;;;;;;1.65;1.30;;;;;;;28.09;nan;62807.63;5114822;28;20211;-77
2023/09/20 09:59:39;;;;;;;2.08;1.55;;;;;;;28.39;nan;62765.81;5116512;28;20178;-80
2023/09/20 10:02:19;;;;;;;1.55;1.25;;;;;;;28.53;nan;62866.03;5093337;28;20203;-77
2023/09/20 10:04:59;;;;;;;1.45;1.20;;;;;;;28.54;nan;62743.00;5094356;28;20169;-77
2023/09/20 10:07:31;;;;;;;2.50;1.65;;;;;;;28.67;nan;62888.88;5094556;28;20165;-78
2023/09/20 10:10:08;;;;;;;2.78;1.75;;;;;;;28.69;nan;62738.56;5094329;28;20169;-77
2023/09/20 10:12:36;;;;;;;1.52;1.30;;;;;;;28.95;nan;62903.19;5093743;28;20302;-76
2023/09/20 10:15:07;;;;;;;1.92;1.60;;;;;;;28.80;nan;62906.47;5094495;28;20165;-76
2023/09/20 10:17:33;;;;;;;1.55;1.15;;;;;;;28.58;nan;62739.13;5094000;28;20250;-77
2023/09/20 10:19:58;;;;;;;1.80;1.52;;;;;;;28.65;nan;62983.91;5093977;28;20492;-75
2023/09/20 10:22:25;;;;;;;1.95;1.33;;;;;;;28.25;nan;62841.81;5075753;28;20177;-76
2023/09/20 10:24:58;;;;;;;2.42;1.60;;;;;;;28.24;nan;62696.06;5093314;28;20173;-76
2023/09/20 10:27:27;;;;;;;1.88;1.33;;;;;;;28.40;nan;62713.81;5093883;28;20180;-77
2023/09/20 10:29:58;;;;;;;1.55;1.20;;;;;;;28.64;nan;62849.16;5093753;28;20177;-77
2023/09/20 10:32:31;;;;;;;2.67;1.63;;;;;;;28.55;nan;62746.78;5094061;28;20212;-75
2023/09/20 10:35:22;;;;;;;4.47;2.08;;;;;;;28.19;nan;62800.16;5093112;28;20226;-75
2023/09/20 10:37:59;;;;;;;1.85;1.35;;;;;;;28.35;nan;62797.47;5094291;28;20197;-76
2023/09/20 10:40:49;;;;;;;2.08;1.30;;;;;;;28.48;nan;62820.88;5108873;28;20180;-78
2023/09/20 10:43:41;;;;;;;2.30;1.50;;;;;;;28.44;nan;62889.31;5114779;28;20208;-77
2023/09/20 10:46:14;;;;;;;2.63;1.55;;;;;;;28.49;nan;62814.09;5114335;28;20183;-77
2023/09/20 10:48:43;;;;;;;3.03;2.08;;;;;;;28.21;nan;62820.88;5096791;28;20492;-77
2023/09/20 10:51:09;;;;;;;2.35;1.63;;;;;;;28.27;nan;62809.31;5108977;28;20353;-76
2023/09/20 10:53:52;;;;;;;1.73;1.27;;;;;;;28.42;nan;62947.50;5094484;28;20680;-77
2023/09/20 10:56:43;;;;;;;1.83;1.50;;;;;;;28.71;nan;62901.38;5108486;28;20610;-77
2023/09/20 10:59:14;;;;;;;1.58;1.20;;;;;;;28.54;nan;62906.06;5095842;28;20748;-76
2023/09/20 11:01:39;;;;;;;2.55;1.48;;;;;;;28.45;nan;62866.81;5096080;28;20178;-78
2023/09/20 11:04:06;;;;;;;2.38;1.38;;;;;;;28.49;nan;62895.06;5113313;28;20176;-78
2023/09/20 11:06:32;;;;;;;1.40;1.20;;;;;;;28.82;nan;62911.38;5111070;28;20256;-79
2023/09/20 11:08:58;;;;;;;1.38;1.20;;;;;;;28.69;nan;62894.38;5094158;28;20169;-79
2023/09/20 11:11:28;;;;;;;1.45;1.30;;;;;;;28.43;nan;62740.91;5093924;28;20255;-78
2023/09/20 11:13:54;;;;;;;2.03;1.60;;;;;;;28.77;nan;62908.25;5075606;28;20184;-79
2023/09/20 11:16:19;;;;;;;1.70;1.45;;;;;;;28.47;nan;62827.03;5094040;28;20173;-78
2023/09/20 11:18:45;;;;;;;2.33;1.90;;;;;;;28.55;nan;62886.19;5093841;28;20196;-75
2023/09/20 11:21:10;;;;;;;2.60;1.73;;;;;;;28.74;nan;62868.56;5093864;28;20177;-75
2023/09/20 11:23:37;;;;;;;2.83;1.90;;;;;;;28.55;nan;62852.56;5075352;28;20173;-76
2023/09/20 11:26:04;;;;;;;1.98;1.50;;;;;;;28.70;nan;62787.66;5093751;28;20251;-77
2023/09/20 11:28:32;;;;;;;2.17;1.40;;;;;;;28.53;nan;62818.13;5093532;28;20172;-73
2023/09/20 11:30:58;;;;;;;2.35;1.50;;;;;;;28.72;nan;62824.16;5093237;28;20545;-74
2023/09/20 11:33:27;;;;;;;1.35;1.25;;;;;;;28.91;nan;62913.81;5075174;28;20181;-75
2023/09/20 11:35:53;;;;;;;1.20;1.10;;;;;;;29.20;nan;62946.56;5092923;28;20640;-74
2023/09/20 11:38:21;;;;;;;1.33;1.17;;;;;;;29.34;nan;62973.22;5093176;28;20206;-74
2023/09/20 11:40:47;;;;;;;1.20;1.10;;;;;;;29.39;nan;62876.81;5095325;28;20187;-74
2023/09/20 11:43:18;;;;;;;1.10;1.00;;;;;;;29.60;nan;63061.06;5094588;28;20688;-74
2023/09/20 11:45:46;;;;;;;1.23;1.13;;;;;;;29.64;nan;62933.91;5093071;28;20165;-75
2023/09/20 11:48:15;;;;;;;1.80;1.20;;;;;;;29.87;nan;62994.03;5093141;28;20178;-75
2023/09/20 11:50:44;;;;;;;1.80;1.60;;;;;;;29.90;nan;63023.28;5075016;28;20635;-75
2023/09/20 11:53:18;;;;;;;1.83;1.70;;;;;;;29.77;nan;63014.16;5092752;28;20635;-74
2023/09/20 11:55:45;;;;;;;1.50;1.35;;;;;;;29.37;nan;62892.38;5092815;28;20182;-74
2023/09/20 11:58:10;;;;;;;1.35;1.08;;;;;;;29.42;nan;62985.63;5093172;28;20197;-74
2023/09/20 12:00:36;;;;;;;5.78;1.70;;;;;;;29.33;nan;62958.88;5092849;28;20168;-73
2023/09/20 12:03:02;;;;;;;1.75;1.10;;;;;;;29.15;nan;62911.84;5091857;28;20185;-74
2023/09/20 12:05:28;;;;;;;1.73;1.30;;;;;;;28.97;nan;62933.88;5101822;28;20207;-76
2023/09/20 12:07:59;;;;;;;1.70;1.20;;;;;;;29.14;nan;62871.22;5100677;28;20176;-73
2023/09/20 12:10:26;;;;;;;1.30;1.13;;;;;;;29.49;nan;63034.66;5092913;28;20216;-80
2023/09/20 12:12:52;;;;;;;1.05;0.90;;;;;;;29.65;nan;63027.28;5110236;28;20267;-80
2023/09/20 12:15:19;;;;;;;1.15;0.93;;;;;;;29.90;nan;63095.03;5095599;28;20199;-79
2023/09/20 12:17:45;;;;;;;0.88;0.88;;;;;;;30.11;nan;63121.25;5111607;28;20203;-80
2023/09/20 12:20:12;;;;;;;1.60;1.23;;;;;;;30.26;nan;63238.78;5105454;28;20219;-82
2023/09/20 12:22:38;;;;;;;1.60;1.17;;;;;;;30.37;nan;63124.25;5095213;28;20623;-83
2023/09/20 12:25:06;;;;;;;1.80;1.33;;;;;;;30.18;nan;63095.63;5096463;28;20279;-76
2023/09/20 12:27:32;;;;;;;1.70;1.30;;;;;;;30.19;nan;62985.44;5117469;28;20248;-77
2023/09/20 12:29:59;;;;;;;0.98;0.88;;;;;;;29.76;nan;63045.22;5113468;28;20191;-74
2023/09/20 12:32:25;;;;;;;1.70;1.40;;;;;;;29.83;nan;63005.81;5113234;28;20160;-75
2023/09/20 12:34:55;;;;;;;1.58;1.17;;;;;;;29.73;nan;63036.47;5094270;28;20172;-79